Time;durP1;ratioP1;P1;durP2;ratioP2;P2;SDS_P1;SDS_P2;PMS_P1;PMS_P2;Temp;Humidity;BMP_temperature;BMP_pressure;BME280_temperature;BME280_humidity;BME280_pressure;Samples;Min_cycle;Max_cycle;Signal;HPM_P1;HPM_P2
2022/08/12 00:43:58;;;;;;;1.60;1.50;;;19.00;50.00;;;;;;5074064;28;20718;-79
2022/08/12 00:46:38;;;;;;;1.50;1.40;;;19.00;49.80;;;;;;5072950;28;20940;-80
2022/08/12 00:49:07;;;;;;;2.03;1.83;;;19.00;50.40;;;;;;5089545;28;20608;-80
2022/08/12 00:54:23;;;;;;;1.63;1.53;;;19.20;49.60;;;;;;5069463;28;20652;-80
2022/08/12 00:56:53;;;;;;;1.50;1.40;;;19.20;50.10;;;;;;5074839;28;21239;-80
2022/08/12 00:59:21;;;;;;;1.50;1.40;;;19.10;50.90;;;;;;5089651;28;20720;-79
2022/08/12 01:01:52;;;;;;;2.20;2.10;;;19.00;50.60;;;;;;5084646;28;21121;-80
2022/08/12 01:12:38;;;;;;;1.40;1.20;;;18.70;51.80;;;;;;5069331;28;20640;-79
2022/08/12 01:15:06;;;;;;;2.03;1.80;;;18.80;50.80;;;;;;5071164;28;20709;-80
2022/08/12 01:17:35;;;;;;;2.40;1.60;;;18.90;50.60;;;;;;5082899;28;20621;-80
2022/08/12 01:20:06;;;;;;;2.40;1.80;;;19.00;50.60;;;;;;5071996;28;20637;-80
2022/08/12 01:22:45;;;;;;;3.83;1.60;;;19.00;51.40;;;;;;5081723;28;20655;-80
2022/08/12 01:25:16;;;;;;;1.70;1.60;;;19.00;50.60;;;;;;5074741;28;20613;-79
2022/08/12 01:27:44;;;;;;;1.83;1.70;;;19.00;50.80;;;;;;5080171;28;20632;-80
2022/08/12 01:30:14;;;;;;;1.50;1.30;;;19.00;50.80;;;;;;5089854;28;20707;-79
2022/08/12 01:32:46;;;;;;;1.50;1.40;;;18.90;50.80;;;;;;5086612;28;20631;-80
2022/08/12 01:35:17;;;;;;;1.40;1.30;;;18.90;51.10;;;;;;5075920;28;20671;-80
2022/08/12 01:37:48;;;;;;;1.63;1.53;;;18.80;51.30;;;;;;5069700;28;21056;-80
2022/08/12 01:40:19;;;;;;;1.90;1.70;;;18.70;51.70;;;;;;5073629;28;20624;-79
2022/08/12 01:42:50;;;;;;;1.40;1.30;;;18.60;52.70;;;;;;5068682;28;20669;-79
2022/08/12 01:45:23;;;;;;;1.47;1.37;;;18.50;52.50;;;;;;5072198;28;21216;-79
2022/08/12 01:48:11;;;;;;;2.17;1.37;;;18.40;52.90;;;;;;5085833;28;20669;-79
2022/08/12 01:50:50;;;;;;;1.60;1.43;;;18.20;53.20;;;;;;5084731;28;20631;-80
2022/08/12 01:53:23;;;;;;;1.90;1.80;;;18.20;53.40;;;;;;5072884;28;20648;-80
2022/08/12 01:55:54;;;;;;;2.63;2.10;;;18.00;53.80;;;;;;5070241;28;20660;-80
2022/08/12 01:58:28;;;;;;;1.83;1.70;;;17.90;54.40;;;;;;5072187;28;21027;-79
2022/08/12 02:01:02;;;;;;;1.73;1.63;;;17.90;54.50;;;;;;5087473;28;20724;-80
2022/08/12 02:12:31;;;;;;;1.90;1.80;;;17.50;55.30;;;;;;5072536;28;20708;-79
2022/08/12 02:15:11;;;;;;;2.40;2.20;;;17.50;55.30;;;;;;5079311;28;21272;-80
2022/08/12 02:17:52;;;;;;;1.67;1.57;;;17.40;55.70;;;;;;5088731;28;20609;-79
2022/08/12 02:20:26;;;;;;;2.17;1.90;;;17.40;56.10;;;;;;5075671;28;21075;-80
2022/08/12 02:22:56;;;;;;;1.90;1.80;;;17.40;56.70;;;;;;5080638;28;20624;-80
2022/08/12 02:25:29;;;;;;;2.80;1.83;;;17.40;56.60;;;;;;5081988;28;20626;-80
2022/08/12 02:27:58;;;;;;;2.40;1.60;;;17.40;56.80;;;;;;5068483;28;21082;-79
2022/08/12 02:30:30;;;;;;;1.93;1.70;;;17.40;56.20;;;;;;5077708;28;20625;-80
2022/08/12 02:32:59;;;;;;;2.23;2.03;;;17.40;56.00;;;;;;5069960;28;20626;-80
2022/08/12 02:35:29;;;;;;;1.63;1.53;;;17.50;55.70;;;;;;5084620;28;21214;-79
2022/08/12 02:38:00;;;;;;;1.97;1.70;;;17.60;55.50;;;;;;5087728;28;20694;-80
2022/08/12 02:40:28;;;;;;;2.83;2.00;;;17.70;55.30;;;;;;5083137;28;20728;-81
2022/08/12 02:43:04;;;;;;;2.00;1.80;;;17.80;55.30;;;;;;5077619;28;20687;-80
2022/08/12 02:45:44;;;;;;;2.10;1.83;;;17.90;53.80;;;;;;5084871;28;20620;-79
2022/08/12 02:48:17;;;;;;;2.00;1.90;;;18.00;53.40;;;;;;5078269;28;20635;-80
2022/08/12 02:50:48;;;;;;;1.63;1.40;;;18.10;52.90;;;;;;5068064;28;20756;-79
2022/08/12 02:53:16;;;;;;;1.85;1.50;;;18.20;52.70;;;;;;5082751;28;20669;-80
2022/08/12 02:55:44;;;;;;;2.83;2.00;;;18.30;53.40;;;;;;5080423;28;20728;-80
2022/08/12 02:58:13;;;;;;;2.33;2.13;;;18.30;53.10;;;;;;5069226;28;20621;-80
2022/08/12 03:00:41;;;;;;;2.70;1.87;;;18.20;53.00;;;;;;5069656;28;21265;-80
2022/08/12 03:03:10;;;;;;;2.67;2.00;;;18.10;53.70;;;;;;5085842;28;21258;-79
2022/08/12 03:05:44;;;;;;;2.30;2.10;;;17.80;53.90;;;;;;5083139;28;20622;-79
2022/08/12 03:08:15;;;;;;;3.23;1.60;;;17.90;54.20;;;;;;5068391;28;20628;-79
2022/08/12 03:10:45;;;;;;;2.00;1.90;;;17.80;54.70;;;;;;5073439;28;21190;-79
2022/08/12 03:13:15;;;;;;;1.70;1.60;;;17.60;55.20;;;;;;5083523;28;20634;-80
2022/08/12 03:15:43;;;;;;;1.73;1.60;;;17.30;55.40;;;;;;5081205;28;20669;-79
2022/08/12 03:18:17;;;;;;;2.40;2.10;;;17.30;55.80;;;;;;5068471;28;20622;-79
2022/08/12 03:20:44;;;;;;;2.83;2.03;;;17.30;56.10;;;;;;5086677;28;21053;-80
2022/08/12 03:23:14;;;;;;;1.57;1.40;;;17.20;56.10;;;;;;5069335;28;21016;-79
2022/08/12 03:25:42;;;;;;;3.40;1.70;;;17.00;56.00;;;;;;5083987;28;20620;-80
2022/08/12 03:28:12;;;;;;;2.27;1.90;;;16.90;56.20;;;;;;5085629;28;20625;-79
2022/08/12 03:30:42;;;;;;;2.37;2.17;;;16.90;56.80;;;;;;5071213;28;20999;-79
2022/08/12 03:33:13;;;;;;;2.30;2.00;;;16.80;57.00;;;;;;5085265;28;20920;-79
2022/08/12 03:35:43;;;;;;;2.37;2.10;;;16.70;57.30;;;;;;5068417;28;20676;-79
2022/08/12 03:38:14;;;;;;;2.80;1.80;;;16.60;57.70;;;;;;5068869;28;20629;-79
2022/08/12 04:00:20;;;;;;;1.93;1.83;;;16.20;59.80;;;;;;5085279;28;20711;-80
2022/08/12 04:02:58;;;;;;;2.47;1.83;;;16.20;59.20;;;;;;5087854;28;21205;-80
2022/08/12 04:05:25;;;;;;;2.00;1.90;;;16.20;59.40;;;;;;5085383;28;20648;-80
2022/08/12 04:07:53;;;;;;;1.50;1.40;;;16.20;60.50;;;;;;5084784;28;20620;-80
2022/08/12 04:10:20;;;;;;;1.80;1.70;;;16.00;60.00;;;;;;5091364;28;20658;-79
2022/08/12 04:15:44;;;;;;;2.10;1.67;;;15.90;60.90;;;;;;5086046;28;20657;-80
2022/08/12 04:18:14;;;;;;;2.10;1.63;;;15.80;60.80;;;;;;5076168;28;20620;-79
2022/08/12 04:20:42;;;;;;;1.87;1.67;;;15.70;60.80;;;;;;5089503;28;20660;-80
2022/08/12 04:23:11;;;;;;;3.90;2.50;;;15.80;60.70;;;;;;5088114;28;20977;-79
2022/08/12 04:25:39;;;;;;;2.20;2.10;;;15.90;62.40;;;;;;5078089;28;20630;-79
2022/08/12 04:28:07;;;;;;;2.20;1.43;;;15.90;63.30;;;;;;5075136;28;20960;-79
2022/08/12 04:30:34;;;;;;;3.57;2.80;;;15.80;63.10;;;;;;5090991;28;20620;-79
2022/08/12 04:33:02;;;;;;;2.37;2.17;;;15.80;61.30;;;;;;5071658;28;20613;-79
2022/08/12 04:35:31;;;;;;;1.87;1.77;;;15.80;61.60;;;;;;5086542;28;20660;-79
2022/08/12 04:37:58;;;;;;;2.27;2.10;;;15.70;62.70;;;;;;5090567;28;20624;-80
2022/08/12 04:40:27;;;;;;;1.77;1.60;;;15.70;63.20;;;;;;5087968;28;21095;-79
2022/08/12 04:42:54;;;;;;;1.97;1.80;;;15.70;62.60;;;;;;5081257;28;20724;-79
2022/08/12 04:45:21;;;;;;;3.53;2.63;;;15.70;63.70;;;;;;5070435;28;20695;-79
2022/08/12 04:47:49;;;;;;;2.00;1.90;;;15.70;63.20;;;;;;5071676;28;20737;-79
2022/08/12 04:50:17;;;;;;;2.00;1.80;;;15.80;62.20;;;;;;5078131;28;20678;-79
2022/08/12 04:52:45;;;;;;;2.47;2.27;;;15.80;63.50;;;;;;5089109;28;20697;-80
2022/08/12 04:55:12;;;;;;;1.70;1.60;;;15.80;62.70;;;;;;5070617;28;20696;-79
2022/08/12 04:57:39;;;;;;;1.67;1.57;;;15.70;63.40;;;;;;5069887;28;20668;-79
2022/08/12 05:00:11;;;;;;;4.30;2.20;;;15.60;63.70;;;;;;5079145;28;20983;-79
2022/08/12 05:02:38;;;;;;;1.80;1.70;;;15.90;62.60;;;;;;5071397;28;20720;-80
2022/08/12 05:05:07;;;;;;;3.40;2.03;;;16.00;63.10;;;;;;5069644;28;21369;-79
2022/08/12 05:07:34;;;;;;;5.03;1.90;;;16.00;63.60;;;;;;5086404;28;20635;-79
2022/08/12 05:10:03;;;;;;;2.80;2.60;;;16.10;63.50;;;;;;5090382;28;20630;-79
2022/08/12 05:12:35;;;;;;;2.53;2.17;;;16.10;63.80;;;;;;5081687;28;20735;-79
2022/08/12 05:15:06;;;;;;;2.63;2.43;;;16.20;63.60;;;;;;5090374;28;21034;-79
2022/08/12 05:17:33;;;;;;;3.07;2.83;;;16.40;62.80;;;;;;5078193;28;20653;-80
2022/08/12 05:20:00;;;;;;;1.80;1.70;;;16.50;62.40;;;;;;5082888;28;20648;-79
2022/08/12 05:22:27;;;;;;;2.57;2.37;;;16.60;61.50;;;;;;5088593;28;20627;-79
2022/08/12 05:24:54;;;;;;;2.40;2.20;;;16.70;60.80;;;;;;5079681;28;20609;-80
2022/08/12 05:27:23;;;;;;;1.80;1.70;;;16.90;60.60;;;;;;5085207;28;20626;-79
2022/08/12 05:29:49;;;;;;;3.33;1.90;;;16.90;61.00;;;;;;5069772;28;20716;-80
2022/08/12 05:32:19;;;;;;;2.00;1.90;;;17.10;59.80;;;;;;5075110;28;20718;-80
2022/08/12 05:34:47;;;;;;;2.30;1.80;;;17.30;58.10;;;;;;5073892;28;21243;-80
2022/08/12 05:37:14;;;;;;;2.37;2.23;;;17.40;58.80;;;;;;5069985;28;20649;-80
2022/08/12 05:39:41;;;;;;;3.70;2.20;;;17.50;58.90;;;;;;5074893;28;20959;-80
2022/08/12 05:42:08;;;;;;;2.20;2.00;;;17.50;59.50;;;;;;5085077;28;20625;-80
2022/08/12 05:44:36;;;;;;;2.57;2.37;;;17.60;59.50;;;;;;5087745;28;20625;-81
2022/08/12 05:47:04;;;;;;;1.80;1.70;;;17.60;59.40;;;;;;5088404;28;20660;-79
2022/08/12 05:49:33;;;;;;;2.00;1.83;;;17.90;57.50;;;;;;5086545;28;20988;-80
2022/08/12 05:52:00;;;;;;;2.00;1.90;;;18.00;58.30;;;;;;5083475;28;20629;-79
2022/08/12 05:54:27;;;;;;;2.63;1.77;;;18.30;56.70;;;;;;5081551;28;20644;-80
2022/08/12 05:56:54;;;;;;;2.00;1.80;;;18.60;55.70;;;;;;5087624;28;20994;-80
2022/08/12 05:59:22;;;;;;;2.07;1.97;;;18.60;56.10;;;;;;5070096;28;20614;-80
2022/08/12 06:01:50;;;;;;;2.20;2.00;;;18.60;56.30;;;;;;5078803;28;20617;-80
2022/08/12 06:04:17;;;;;;;1.60;1.50;;;18.90;55.20;;;;;;5071874;28;20666;-80
2022/08/12 06:06:50;;;;;;;3.60;2.27;;;19.00;54.90;;;;;;5088941;28;20681;-80
2022/08/12 06:09:16;;;;;;;2.07;1.87;;;19.20;55.20;;;;;;5074013;28;21288;-80
2022/08/12 06:11:46;;;;;;;2.07;1.90;;;19.20;55.90;;;;;;5077690;28;20728;-81
2022/08/12 06:14:13;;;;;;;2.00;1.90;;;19.20;54.30;;;;;;5087628;28;20635;-81
2022/08/12 06:16:40;;;;;;;2.10;1.80;;;19.20;54.90;;;;;;5077085;28;20617;-79
2022/08/12 06:19:09;;;;;;;2.00;1.90;;;19.40;54.40;;;;;;5088962;28;20621;-81
2022/08/12 06:21:36;;;;;;;2.23;2.13;;;19.50;54.20;;;;;;5083441;28;20617;-82
2022/08/12 06:24:04;;;;;;;1.60;1.50;;;19.60;53.50;;;;;;5067205;28;20630;-81
2022/08/12 06:26:33;;;;;;;1.87;1.60;;;19.80;52.90;;;;;;5071007;28;20728;-81
2022/08/12 06:29:00;;;;;;;2.80;2.07;;;19.80;53.20;;;;;;5088744;28;20621;-82
2022/08/12 06:31:27;;;;;;;1.50;1.40;;;19.90;53.00;;;;;;5080872;28;21194;-83
2022/08/12 06:33:55;;;;;;;1.50;1.40;;;20.00;53.20;;;;;;5084127;28;20653;-81
2022/08/12 06:36:23;;;;;;;2.00;1.90;;;20.10;52.60;;;;;;5069068;28;20679;-82
2022/08/12 06:38:50;;;;;;;1.50;1.40;;;20.30;53.00;;;;;;5068953;28;20617;-82
2022/08/12 06:44:03;;;;;;;1.73;1.63;;;20.50;52.40;;;;;;5087986;28;20600;-81
2022/08/12 06:46:30;;;;;;;1.63;1.53;;;20.70;51.30;;;;;;5076177;28;20626;-81
2022/08/12 06:48:58;;;;;;;1.73;1.63;;;20.80;52.00;;;;;;5072359;28;20625;-80
2022/08/12 06:51:29;;;;;;;3.23;2.23;;;20.90;51.50;;;;;;5087835;28;20706;-81
2022/08/12 06:53:57;;;;;;;2.47;2.27;;;20.90;50.40;;;;;;5068050;28;20626;-81
2022/08/12 06:56:24;;;;;;;2.07;1.93;;;20.90;50.20;;;;;;5069302;28;20661;-81
2022/08/12 06:58:51;;;;;;;2.00;1.80;;;21.10;50.30;;;;;;5076307;28;20631;-80
2022/08/12 07:01:18;;;;;;;2.27;1.60;;;21.10;50.20;;;;;;5074787;28;20612;-82
2022/08/12 07:03:45;;;;;;;1.60;1.50;;;21.10;49.90;;;;;;5071527;28;20610;-81
2022/08/12 07:06:12;;;;;;;2.53;2.20;;;21.30;49.80;;;;;;5068545;28;20628;-79
2022/08/12 07:08:42;;;;;;;1.67;1.53;;;21.30;49.30;;;;;;5072160;28;20625;-80
2022/08/12 07:11:12;;;;;;;1.90;1.80;;;21.40;49.50;;;;;;5082500;28;20617;-81
2022/08/12 07:13:43;;;;;;;1.40;1.30;;;21.60;49.60;;;;;;5067667;28;20625;-81
2022/08/12 07:16:12;;;;;;;1.40;1.40;;;21.50;48.70;;;;;;5086014;28;20755;-81
2022/08/12 07:18:40;;;;;;;2.30;2.10;;;21.60;49.50;;;;;;5067598;28;20621;-81
2022/08/12 07:21:08;;;;;;;2.60;2.10;;;21.70;49.60;;;;;;5072536;28;20720;-83
2022/08/12 07:23:37;;;;;;;2.03;1.90;;;21.80;48.70;;;;;;5067918;28;20658;-82
2022/08/12 07:26:08;;;;;;;1.70;1.60;;;21.90;48.00;;;;;;5069350;28;20633;-83
2022/08/12 07:28:38;;;;;;;2.27;2.00;;;22.00;48.10;;;;;;5067878;28;21047;-81
2022/08/12 07:31:07;;;;;;;1.90;1.80;;;22.00;49.60;;;;;;5083978;28;20645;-83
2022/08/12 07:33:37;;;;;;;1.90;1.80;;;22.40;48.10;;;;;;5084442;28;20637;-81
2022/08/12 07:36:07;;;;;;;1.77;1.67;;;22.50;48.00;;;;;;5078866;28;21026;-82
2022/08/12 07:38:35;;;;;;;2.47;2.27;;;22.40;48.00;;;;;;5085291;28;20666;-80
2022/08/12 07:41:07;;;;;;;2.13;1.97;;;22.50;47.70;;;;;;5085842;28;20635;-82
2022/08/12 07:43:36;;;;;;;2.50;1.77;;;22.50;48.00;;;;;;5086305;28;20656;-82
2022/08/12 07:46:04;;;;;;;1.60;1.50;;;22.70;48.20;;;;;;5083875;28;21578;-81
2022/08/12 07:48:37;;;;;;;1.60;1.50;;;22.80;47.90;;;;;;5087333;28;21190;-80
2022/08/12 07:51:04;;;;;;;1.90;1.80;;;22.90;47.40;;;;;;5075193;28;20629;-81
2022/08/12 07:53:31;;;;;;;1.67;1.57;;;22.90;46.90;;;;;;5083441;28;21093;-79
2022/08/12 07:55:58;;;;;;;2.23;2.13;;;23.00;46.60;;;;;;5066601;28;20762;-82
2022/08/12 07:58:27;;;;;;;1.47;1.40;;;23.10;47.40;;;;;;5069196;28;21119;-81
2022/08/12 08:00:56;;;;;;;1.73;1.57;;;23.20;47.80;;;;;;5081758;28;20622;-82
2022/08/12 08:03:25;;;;;;;1.90;1.80;;;23.20;46.60;;;;;;5083789;28;20633;-81
2022/08/12 08:05:52;;;;;;;1.90;1.80;;;23.30;47.20;;;;;;5082041;28;20621;-81
2022/08/12 08:08:21;;;;;;;1.93;1.77;;;23.30;46.10;;;;;;5085659;28;20617;-82
2022/08/12 08:10:49;;;;;;;2.17;1.97;;;23.50;46.10;;;;;;5086014;28;21236;-81
2022/08/12 08:13:15;;;;;;;2.00;1.90;;;23.50;47.10;;;;;;5086364;28;20685;-82
2022/08/12 08:15:48;;;;;;;1.87;1.77;;;23.70;45.90;;;;;;5087967;28;21093;-82
2022/08/12 08:18:16;;;;;;;1.57;1.47;;;23.80;45.50;;;;;;5088012;28;20608;-82
2022/08/12 08:20:45;;;;;;;1.90;1.80;;;23.90;45.30;;;;;;5087331;28;20621;-80
2022/08/12 08:23:18;;;;;;;1.70;1.60;;;23.90;44.60;;;;;;5086392;28;20658;-81
2022/08/12 08:25:46;;;;;;;1.60;1.50;;;24.00;44.40;;;;;;5087553;28;20624;-81
2022/08/12 08:28:15;;;;;;;2.00;1.70;;;24.00;44.50;;;;;;5087546;28;20616;-82
2022/08/12 08:30:46;;;;;;;1.80;1.70;;;24.10;44.80;;;;;;5086635;28;20620;-81
2022/08/12 08:33:15;;;;;;;1.50;1.40;;;24.20;44.70;;;;;;5083008;28;20636;-81
2022/08/12 08:35:47;;;;;;;1.70;1.60;;;24.40;43.10;;;;;;5082082;28;20754;-82
2022/08/12 08:38:16;;;;;;;1.93;1.60;;;24.50;43.20;;;;;;5091224;28;20623;-80
2022/08/12 08:43:30;;;;;;;1.90;1.80;;;24.50;42.80;;;;;;5069997;28;20734;-82
2022/08/12 08:46:00;;;;;;;2.07;1.97;;;24.80;42.60;;;;;;5083202;28;21388;-79
2022/08/12 08:48:29;;;;;;;1.53;1.43;;;24.80;43.00;;;;;;5091191;28;21511;-81
2022/08/12 08:50:56;;;;;;;1.60;1.50;;;25.10;42.80;;;;;;5083822;28;20631;-81
2022/08/12 08:53:22;;;;;;;1.50;1.40;;;25.10;42.60;;;;;;5083673;28;20703;-83
2022/08/12 08:55:49;;;;;;;2.57;2.37;;;25.20;42.00;;;;;;5070194;28;20657;-82
2022/08/12 08:58:19;;;;;;;1.47;1.37;;;25.20;41.40;;;;;;5074913;28;20715;-81
2022/08/12 09:00:49;;;;;;;1.77;1.67;;;25.30;41.20;;;;;;5086022;28;20633;-82
2022/08/12 09:03:18;;;;;;;2.03;1.60;;;25.40;41.50;;;;;;5086874;28;20624;-83
2022/08/12 09:05:45;;;;;;;1.67;1.57;;;25.50;40.30;;;;;;5076845;28;20741;-82
2022/08/12 09:08:12;;;;;;;1.67;1.57;;;25.40;41.30;;;;;;5070039;28;20625;-82
2022/08/12 09:10:39;;;;;;;1.80;1.70;;;25.40;41.50;;;;;;5081917;28;20731;-83
2022/08/12 09:15:51;;;;;;;1.40;1.37;;;25.60;41.70;;;;;;5078092;28;20653;-81
2022/08/12 09:18:19;;;;;;;1.87;1.77;;;25.60;41.40;;;;;;5069897;28;20625;-83
2022/08/12 09:20:49;;;;;;;2.10;2.00;;;25.80;41.40;;;;;;5081518;28;20638;-84
2022/08/12 09:23:18;;;;;;;2.20;2.10;;;25.80;40.70;;;;;;5089391;28;20753;-81
2022/08/12 09:25:47;;;;;;;1.70;1.53;;;26.00;41.70;;;;;;5078203;28;20622;-83
2022/08/12 09:28:14;;;;;;;1.60;1.50;;;26.00;40.80;;;;;;5070165;28;20687;-82
2022/08/12 09:30:44;;;;;;;1.97;1.83;;;26.10;41.30;;;;;;5079505;28;20621;-82
2022/08/12 09:33:12;;;;;;;1.80;1.70;;;26.20;41.50;;;;;;5087829;28;20601;-82
2022/08/12 09:35:42;;;;;;;2.03;1.87;;;26.20;40.90;;;;;;5073769;28;20653;-82
2022/08/12 09:38:16;;;;;;;2.10;1.90;;;26.30;41.70;;;;;;5069119;28;20625;-81
2022/08/12 09:40:43;;;;;;;2.40;1.50;;;26.30;41.80;;;;;;5072924;28;20658;-82
2022/08/12 09:45:56;;;;;;;2.07;1.97;;;26.30;42.50;;;;;;5068736;28;20641;-81
2022/08/12 09:48:23;;;;;;;1.80;1.70;;;26.40;41.30;;;;;;5080905;28;21053;-82
2022/08/12 09:50:52;;;;;;;2.40;2.20;;;26.50;41.60;;;;;;5087191;28;20616;-83
2022/08/12 09:53:23;;;;;;;2.20;2.00;;;26.70;41.20;;;;;;5069066;28;20702;-81
2022/08/12 09:55:51;;;;;;;3.33;2.53;;;26.70;40.70;;;;;;5070143;28;20844;-81
2022/08/12 09:58:20;;;;;;;2.10;1.93;;;26.80;40.90;;;;;;5070033;28;20629;-83
2022/08/12 10:00:47;;;;;;;1.70;1.60;;;26.90;40.30;;;;;;5069511;28;20744;-81
2022/08/12 10:03:15;;;;;;;1.80;1.70;;;27.00;40.60;;;;;;5068341;28;20610;-82
2022/08/12 10:05:44;;;;;;;1.87;1.60;;;27.00;40.20;;;;;;5069044;28;20626;-80
2022/08/12 10:08:15;;;;;;;2.40;2.20;;;27.10;39.50;;;;;;5072860;28;20946;-82
2022/08/12 10:13:43;;;;;;;1.50;1.40;;;27.20;41.50;;;;;;5086192;28;20625;-83
2022/08/12 10:16:16;;;;;;;1.67;1.57;;;27.30;39.00;;;;;;5072291;28;20718;-80
2022/08/12 10:18:45;;;;;;;2.00;1.87;;;27.60;39.30;;;;;;5082247;28;20629;-83
2022/08/12 10:21:13;;;;;;;2.97;2.73;;;27.80;39.70;;;;;;5088912;28;21065;-83
2022/08/12 10:23:43;;;;;;;2.20;2.00;;;27.80;39.00;;;;;;5081430;28;20633;-81
2022/08/12 10:31:44;;;;;;;1.77;1.67;;;28.10;38.60;;;;;;5080866;28;21176;-81
2022/08/12 10:34:12;;;;;;;2.07;1.97;;;28.00;39.10;;;;;;5072926;28;20617;-79
2022/08/12 10:36:40;;;;;;;2.10;1.90;;;28.00;38.60;;;;;;5088171;28;21444;-83
2022/08/12 10:39:09;;;;;;;1.67;1.40;;;28.00;38.00;;;;;;5073871;28;20661;-83
2022/08/12 10:44:21;;;;;;;2.37;1.70;;;28.40;38.70;;;;;;5069008;28;20620;-81
2022/08/12 10:46:49;;;;;;;1.90;1.77;;;28.50;37.50;;;;;;5068284;28;20638;-81
2022/08/12 10:49:15;;;;;;;2.47;2.27;;;28.50;38.60;;;;;;5079162;28;20632;-81
2022/08/12 10:51:42;;;;;;;2.00;1.90;;;28.60;37.70;;;;;;5068319;28;20648;-82
2022/08/12 10:54:12;;;;;;;2.00;1.63;;;28.80;37.50;;;;;;5067545;28;20621;-82
2022/08/12 10:56:40;;;;;;;2.57;1.83;;;28.90;37.70;;;;;;5079111;28;21008;-82
2022/08/12 10:59:07;;;;;;;1.43;1.33;;;29.10;37.40;;;;;;5078228;28;20626;-82
2022/08/12 11:01:34;;;;;;;2.07;1.90;;;29.20;37.20;;;;;;5067447;28;20923;-81
2022/08/12 11:04:02;;;;;;;1.80;1.70;;;28.90;36.60;;;;;;5075898;28;20653;-82
2022/08/12 11:06:29;;;;;;;2.53;2.33;;;28.60;36.90;;;;;;5080212;28;20651;-81
2022/08/12 11:08:56;;;;;;;1.80;1.70;;;28.60;37.00;;;;;;5071722;28;20661;-81
2022/08/12 11:11:25;;;;;;;1.60;1.50;;;28.60;38.10;;;;;;5068226;28;20620;-82
2022/08/12 11:13:52;;;;;;;1.50;1.40;;;28.50;36.30;;;;;;5087167;28;20656;-83
2022/08/12 11:16:19;;;;;;;1.90;1.53;;;28.10;36.40;;;;;;5087497;28;20663;-81
2022/08/12 11:18:51;;;;;;;1.90;1.80;;;27.70;39.90;;;;;;5067539;28;20661;-80
2022/08/12 11:21:18;;;;;;;2.23;1.83;;;27.60;40.40;;;;;;5069132;28;20774;-81
2022/08/12 11:23:46;;;;;;;2.30;2.10;;;28.20;38.50;;;;;;5085755;28;20727;-81
2022/08/12 11:26:13;;;;;;;3.57;1.63;;;28.80;38.30;;;;;;5086073;28;21070;-81
2022/08/12 11:28:45;;;;;;;1.87;1.77;;;29.40;36.80;;;;;;5068539;28;20672;-84
2022/08/12 11:31:14;;;;;;;1.50;1.40;;;29.70;36.00;;;;;;5076858;28;20643;-82
2022/08/12 11:33:41;;;;;;;1.80;1.53;;;30.00;34.90;;;;;;5070078;28;20626;-84
2022/08/12 11:36:09;;;;;;;1.27;1.17;;;30.10;34.80;;;;;;5087096;28;20656;-83
2022/08/12 11:38:37;;;;;;;1.43;1.33;;;30.00;35.90;;;;;;5087567;28;20911;-81
2022/08/12 11:41:04;;;;;;;1.90;1.70;;;29.60;35.60;;;;;;5080683;28;21195;-82
2022/08/12 11:43:39;;;;;;;1.93;1.50;;;28.90;36.70;;;;;;5081662;28;20631;-82
2022/08/12 11:46:12;;;;;;;1.60;1.50;;;28.90;36.20;;;;;;5083700;28;20659;-81
2022/08/12 11:48:39;;;;;;;1.50;1.40;;;29.40;35.30;;;;;;5068348;28;20661;-81
2022/08/12 11:51:07;;;;;;;2.00;1.80;;;29.80;35.10;;;;;;5073818;28;20723;-82
2022/08/12 11:53:34;;;;;;;1.73;1.50;;;30.00;36.90;;;;;;5086405;28;20613;-82
2022/08/12 11:56:03;;;;;;;1.53;1.43;;;29.60;36.60;;;;;;5085744;28;20987;-81
2022/08/12 11:58:30;;;;;;;2.07;1.70;;;29.90;34.60;;;;;;5086425;28;21189;-82
2022/08/12 12:00:59;;;;;;;1.50;1.40;;;30.90;34.40;;;;;;5067478;28;21012;-82
2022/08/12 12:03:28;;;;;;;1.57;1.47;;;31.80;34.20;;;;;;5066499;28;20614;-82
2022/08/12 12:05:55;;;;;;;1.67;1.53;;;33.00;32.60;;;;;;5066995;28;20636;-83
2022/08/12 12:08:23;;;;;;;1.50;1.40;;;34.10;30.90;;;;;;5068261;28;20613;-82
2022/08/12 12:10:50;;;;;;;1.40;1.30;;;34.40;30.90;;;;;;5071074;28;20716;-82
2022/08/12 12:13:18;;;;;;;1.27;1.17;;;34.80;30.30;;;;;;5069509;28;20702;-84
2022/08/12 12:15:48;;;;;;;1.60;1.50;;;34.00;30.00;;;;;;5086016;28;21266;-82
2022/08/12 12:18:22;;;;;;;1.60;1.50;;;33.50;31.20;;;;;;5085444;28;21254;-82
2022/08/12 12:20:51;;;;;;;1.53;1.43;;;33.80;31.10;;;;;;5070979;28;20636;-81
2022/08/12 12:23:18;;;;;;;4.70;1.60;;;33.50;31.30;;;;;;5082227;28;20621;-83
2022/08/12 12:25:45;;;;;;;1.40;1.30;;;34.30;30.40;;;;;;5078960;28;21129;-83
2022/08/12 12:28:16;;;;;;;1.73;1.63;;;33.70;30.00;;;;;;5084815;28;20725;-82
2022/08/12 12:30:44;;;;;;;1.60;1.50;;;33.40;30.30;;;;;;5089361;28;20625;-83
2022/08/12 12:33:14;;;;;;;1.57;1.47;;;34.00;30.20;;;;;;5077602;28;20636;-81
2022/08/12 12:35:42;;;;;;;1.60;1.50;;;33.00;31.30;;;;;;5075740;28;20620;-80
2022/08/12 12:38:15;;;;;;;1.40;1.30;;;31.90;31.60;;;;;;5079559;28;20665;-82
2022/08/12 12:40:44;;;;;;;1.40;1.37;;;30.70;32.80;;;;;;5086088;28;20717;-81
2022/08/12 12:43:14;;;;;;;1.67;1.57;;;30.20;32.90;;;;;;5075942;28;20620;-82
2022/08/12 12:45:42;;;;;;;1.40;1.30;;;30.00;33.20;;;;;;5088761;28;20707;-83
2022/08/12 12:48:10;;;;;;;1.60;1.27;;;29.50;33.80;;;;;;5083038;28;21224;-84
2022/08/12 12:50:38;;;;;;;1.50;1.40;;;29.20;34.00;;;;;;5090120;28;20686;-82
2022/08/12 12:53:06;;;;;;;1.37;1.27;;;30.20;34.10;;;;;;5082999;28;20698;-82
2022/08/12 12:55:36;;;;;;;1.93;1.80;;;31.90;33.80;;;;;;5078483;28;21047;-83
2022/08/12 12:58:04;;;;;;;3.20;1.53;;;32.40;32.70;;;;;;5072848;28;21051;-84
2022/08/12 13:00:32;;;;;;;2.27;2.00;;;32.90;32.00;;;;;;5070211;28;20682;-84
2022/08/12 13:02:59;;;;;;;1.90;1.80;;;34.00;31.40;;;;;;5087914;28;21279;-84
2022/08/12 13:05:28;;;;;;;1.80;1.70;;;35.30;30.70;;;;;;5081500;28;20986;-83
2022/08/12 13:07:56;;;;;;;1.33;1.23;;;36.50;29.70;;;;;;5069987;28;21277;-83
2022/08/12 13:10:24;;;;;;;2.03;1.67;;;37.20;30.00;;;;;;5076567;28;20727;-83
2022/08/12 13:12:53;;;;;;;1.40;1.40;;;36.60;29.10;;;;;;5069439;28;20632;-81
2022/08/12 13:15:21;;;;;;;1.50;1.40;;;35.20;29.30;;;;;;5089381;28;20656;-83
2022/08/12 13:17:50;;;;;;;1.47;1.37;;;35.10;30.20;;;;;;5090324;28;21013;-81
2022/08/12 13:20:17;;;;;;;1.10;1.07;;;36.00;29.70;;;;;;5071094;28;21021;-83
2022/08/12 13:22:45;;;;;;;1.77;1.67;;;37.00;29.00;;;;;;5083043;28;21261;-80
2022/08/12 13:25:13;;;;;;;1.40;1.30;;;36.20;28.40;;;;;;5073028;28;20704;-82
2022/08/12 13:27:43;;;;;;;1.73;1.63;;;35.10;28.80;;;;;;5070125;28;20641;-81
2022/08/12 13:30:15;;;;;;;1.80;1.70;;;33.60;29.90;;;;;;5086443;28;20617;-81
2022/08/12 13:32:45;;;;;;;2.00;1.90;;;32.90;30.40;;;;;;5074224;28;20678;-82
2022/08/12 13:35:15;;;;;;;1.53;1.43;;;31.90;31.20;;;;;;5075517;28;20632;-82
2022/08/12 13:37:42;;;;;;;1.60;1.50;;;31.20;31.90;;;;;;5068743;28;20665;-80
2022/08/12 13:40:11;;;;;;;1.60;1.50;;;30.60;32.50;;;;;;5071069;28;20719;-81
2022/08/12 13:42:38;;;;;;;1.70;1.60;;;30.90;35.30;;;;;;5083988;28;20681;-81
2022/08/12 13:45:07;;;;;;;1.33;1.33;;;32.60;33.20;;;;;;5083016;28;21190;-84
2022/08/12 13:47:54;;;;;;;1.73;1.63;;;34.20;31.30;;;;;;5070713;28;20721;-81
2022/08/12 13:50:23;;;;;;;1.20;1.10;;;35.80;30.00;;;;;;5068676;28;20728;-81
2022/08/12 13:52:50;;;;;;;1.50;1.40;;;36.30;29.10;;;;;;5067586;28;20670;-81
2022/08/12 13:55:24;;;;;;;1.40;1.30;;;35.00;28.90;;;;;;5068748;28;20745;-81
2022/08/12 13:57:52;;;;;;;1.43;1.33;;;34.90;29.90;;;;;;5069257;28;20657;-82
2022/08/12 14:00:19;;;;;;;1.57;1.47;;;35.60;29.60;;;;;;5069043;28;20736;-81
2022/08/12 14:02:46;;;;;;;1.40;1.30;;;36.40;29.00;;;;;;5067778;28;21177;-82
2022/08/12 14:05:16;;;;;;;1.53;1.43;;;37.30;28.80;;;;;;5067918;28;20628;-84
2022/08/12 14:07:57;;;;;;;1.70;1.60;;;37.60;28.40;;;;;;5068454;28;20633;-84
2022/08/12 14:10:36;;;;;;;1.90;1.80;;;36.40;28.70;;;;;;5068763;28;20707;-83
2022/08/12 14:13:04;;;;;;;1.23;1.20;;;35.20;29.20;;;;;;5067442;28;20704;-82
2022/08/12 14:15:31;;;;;;;1.90;1.80;;;34.80;29.10;;;;;;5073691;28;20625;-82
2022/08/12 14:18:09;;;;;;;1.70;1.60;;;34.00;29.50;;;;;;5075862;28;20713;-84
2022/08/12 14:20:37;;;;;;;1.53;1.43;;;33.20;29.70;;;;;;5079707;28;20641;-82
2022/08/12 14:23:05;;;;;;;1.53;1.43;;;32.30;30.10;;;;;;5068854;28;20624;-83
2022/08/12 14:25:32;;;;;;;1.70;1.60;;;31.70;31.00;;;;;;5068840;28;20701;-81
2022/08/12 14:28:10;;;;;;;1.60;1.50;;;31.10;31.70;;;;;;5072772;28;20622;-85
2022/08/12 14:30:50;;;;;;;1.30;1.30;;;30.70;31.70;;;;;;5088533;28;20629;-83
2022/08/12 14:33:17;;;;;;;1.07;1.07;;;31.30;32.70;;;;;;5070314;28;20629;-82
2022/08/12 14:35:45;;;;;;;1.50;1.40;;;32.70;31.70;;;;;;5086347;28;21241;-83
2022/08/12 14:38:15;;;;;;;1.03;1.03;;;33.50;30.50;;;;;;5085021;28;20759;-83
2022/08/12 14:40:42;;;;;;;1.57;1.47;;;33.80;30.00;;;;;;5086705;28;20625;-86
2022/08/12 14:43:09;;;;;;;1.70;1.60;;;33.80;30.00;;;;;;5070387;28;20657;-83
2022/08/12 14:45:36;;;;;;;1.47;1.37;;;33.50;29.10;;;;;;5067762;28;21101;-85